OMR weather

Oradea International Airport
Oradea, Bihor, Romania

Public forecast

Using degrees Celsius for public forecast. Weather courtesy of forecast.io.

METAR (pilot weather report)

Retrieved 2019/08/20 23:30 UTC (16 minutes ago):

LROD 202330Z AUTO 11007KT 9999 NCD 22/17 Q1018

TAF (pilot weather forecast)

Forecast is more than 12 hours old.

Retrieved 2010/08/31 20:30 UTC (9 years ago):

TAF LROD 312030Z 3121/0203 CNL